Search for airport 
image banner adimage banner adimage banner ad
image banner ad

62CA - Bank Of America Data Center

Located in Los Angeles, United States

ICAO - 62CA, IATA -

Data provided by Airmate  

General information

Coordinates: N34°3'41" W118°15'6"
Elevation is 440 feet MSL.
Magnetic variation is 14° East
View others Airports in California

Operational data

Special qualification required
Current time UTC:
Current local time:
METAR: KHHR 221353Z 00000KT 10SM CLR 16/13 A2993 RMK AO2 SLP135 T01610133
View NOTAMs / SUP AIP / TFR affecting this airport [VIEW]
Communications frequencies: [VIEW]

Runways:

Airport contact information

Address: Los Angeles United States

Satellite view of 62CA